Time;durP1;ratioP1;P1;durP2;ratioP2;P2;SDS_P1;SDS_P2;PMS_P1;PMS_P2;Temp;Humidity;BMP_temperature;BMP_pressure;BME280_temperature;BME280_humidity;BME280_pressure;Samples;Min_cycle;Max_cycle;Signal;HPM_P1;HPM_P2
2023/09/12 00:00:11;;;;;;;9.73;7.25;;;20.20;98.70;;;;;;6109016;23;88893;-70
2023/09/12 00:02:37;;;;;;;13.73;7.90;;;20.20;98.80;;;;;;6110231;22;87565;-69
2023/09/12 00:05:04;;;;;;;11.15;7.88;;;20.20;98.90;;;;;;6096289;23;87792;-70
2023/09/12 00:07:30;;;;;;;10.82;8.05;;;20.20;99.10;;;;;;6109286;22;87637;-70
2023/09/12 00:09:55;;;;;;;14.13;7.90;;;20.10;99.20;;;;;;6108675;22;90980;-68
2023/09/12 00:12:24;;;;;;;12.23;7.75;;;20.10;99.30;;;;;;6110726;23;87576;-69
2023/09/12 00:14:50;;;;;;;10.98;7.32;;;20.00;99.30;;;;;;6110110;23;87736;-69
2023/09/12 00:17:16;;;;;;;10.35;7.57;;;20.00;99.20;;;;;;6110947;23;86996;-69
2023/09/12 00:19:43;;;;;;;11.30;8.38;;;20.00;99.20;;;;;;6110044;23;87885;-68
2023/09/12 00:22:08;;;;;;;13.18;8.43;;;19.90;99.60;;;;;;6134158;22;87510;-70
2023/09/12 00:24:34;;;;;;;12.90;8.48;;;19.90;99.50;;;;;;6108228;22;88809;-68
2023/09/12 00:27:00;;;;;;;16.63;10.73;;;19.90;99.60;;;;;;6109428;22;88074;-70
2023/09/12 00:29:25;;;;;;;13.30;9.45;;;19.90;99.90;;;;;;6108921;22;87439;-67
2023/09/12 00:31:51;;;;;;;14.13;9.40;;;19.80;99.80;;;;;;6133023;22;87921;-70
2023/09/12 00:34:17;;;;;;;17.80;9.57;;;19.80;99.90;;;;;;6109503;23;87676;-70
2023/09/12 00:36:44;;;;;;;15.55;9.25;;;19.80;99.90;;;;;;6108323;22;91528;-70
2023/09/12 00:39:10;;;;;;;12.93;9.25;;;19.80;99.90;;;;;;6110208;22;88671;-70
2023/09/12 00:41:43;;;;;;;12.73;9.45;;;19.70;99.90;;;;;;6111111;22;86809;-68
2023/09/12 00:44:10;;;;;;;17.13;9.77;;;19.70;99.90;;;;;;6110361;23;87792;-68
2023/09/12 00:46:36;;;;;;;14.07;9.77;;;19.70;99.90;;;;;;6109331;22;88695;-69
2023/09/12 00:49:03;;;;;;;17.90;9.75;;;19.70;99.90;;;;;;6108440;22;89749;-68
2023/09/12 00:51:30;;;;;;;14.23;9.82;;;19.70;99.90;;;;;;6110476;22;87462;-68
2023/09/12 00:53:57;;;;;;;15.57;9.45;;;19.70;99.90;;;;;;6108759;23;87818;-70
2023/09/12 00:56:23;;;;;;;17.00;10.63;;;19.60;99.90;;;;;;6109356;23;87769;-68
2023/09/12 00:58:51;;;;;;;16.35;9.95;;;19.60;99.90;;;;;;6107174;22;87674;-69
2023/09/12 01:01:18;;;;;;;18.48;12.07;;;19.60;99.90;;;;;;6108218;22;88308;-69
2023/09/12 01:03:43;;;;;;;19.70;11.25;;;19.60;99.90;;;;;;6106533;22;87778;-69
2023/09/12 01:06:13;;;;;;;14.90;11.02;;;19.60;99.90;;;;;;6108462;22;87432;-68
2023/09/12 01:08:39;;;;;;;14.27;10.80;;;19.60;99.90;;;;;;6108185;22;87525;-68
2023/09/12 01:11:05;;;;;;;15.68;10.18;;;19.60;99.90;;;;;;6108628;23;87955;-70
2023/09/12 01:13:31;;;;;;;15.15;10.15;;;19.60;99.90;;;;;;6107973;22;88556;-69
2023/09/12 01:15:57;;;;;;;14.40;10.02;;;19.60;99.90;;;;;;6107071;22;88326;-68
2023/09/12 01:18:23;;;;;;;14.93;10.40;;;19.70;99.90;;;;;;6108530;22;88114;-70
2023/09/12 01:21:14;;;;;;;18.27;11.18;;;19.70;99.90;;;;;;6108972;23;87654;-70
2023/09/12 01:24:09;;;;;;;18.10;12.10;;;19.70;99.90;;;;;;6105900;22;87597;-71
2023/09/12 01:27:17;;;;;;;18.35;10.88;;;19.70;99.90;;;;;;6108896;22;88256;-68
2023/09/12 01:29:45;;;;;;;12.90;10.82;;;19.70;99.90;;;;;;6108728;22;88377;-69
2023/09/12 01:32:13;;;;;;;17.33;11.45;;;19.70;99.90;;;;;;6107879;22;87147;-69
2023/09/12 01:34:39;;;;;;;16.98;9.88;;;19.80;99.90;;;;;;6107364;22;90351;-69
2023/09/12 01:37:05;;;;;;;15.85;11.07;;;19.80;99.90;;;;;;6114020;22;91568;-69
2023/09/12 01:39:31;;;;;;;17.75;12.30;;;19.80;99.90;;;;;;6138545;22;88505;-70
2023/09/12 01:41:59;;;;;;;18.33;12.95;;;19.80;99.90;;;;;;6139664;22;87576;-70
2023/09/12 01:44:28;;;;;;;16.10;12.52;;;19.80;99.90;;;;;;6138137;22;87858;-69
2023/09/12 01:46:55;;;;;;;18.67;12.73;;;19.80;99.90;;;;;;6137821;22;88975;-68
2023/09/12 01:49:23;;;;;;;18.35;12.65;;;19.80;99.90;;;;;;6127314;22;90715;-68
2023/09/12 01:51:50;;;;;;;21.80;14.25;;;19.80;99.90;;;;;;6109343;22;87887;-68
2023/09/12 01:54:16;;;;;;;23.50;14.45;;;19.80;99.90;;;;;;6139024;22;87918;-68
2023/09/12 01:56:43;;;;;;;24.67;13.93;;;19.80;99.90;;;;;;6145885;22;87423;-69
2023/09/12 01:59:09;;;;;;;19.10;13.80;;;19.80;99.90;;;;;;6137717;22;87673;-69
2023/09/12 02:01:34;;;;;;;20.52;13.68;;;19.90;99.90;;;;;;6137588;22;88127;-71
2023/09/12 02:04:00;;;;;;;19.60;12.77;;;19.90;99.90;;;;;;6135873;22;89939;-68
2023/09/12 02:06:26;;;;;;;23.77;15.23;;;19.90;99.90;;;;;;6136975;22;91170;-70
2023/09/12 02:08:51;;;;;;;19.00;14.23;;;19.90;99.90;;;;;;6138485;22;88950;-69
2023/09/12 02:11:19;;;;;;;23.45;15.10;;;19.90;99.90;;;;;;6138280;22;87622;-70
2023/09/12 02:13:45;;;;;;;19.85;13.68;;;19.90;99.90;;;;;;6138102;22;87832;-71
2023/09/12 02:16:11;;;;;;;24.98;15.38;;;19.90;99.90;;;;;;6138200;22;87621;-68
2023/09/12 02:18:36;;;;;;;19.30;14.85;;;19.90;99.90;;;;;;6137225;22;91308;-70
2023/09/12 02:21:02;;;;;;;22.75;14.48;;;19.90;99.90;;;;;;6138485;22;87165;-70
2023/09/12 02:23:27;;;;;;;23.98;14.75;;;19.90;99.90;;;;;;6136557;22;87866;-70
2023/09/12 02:25:53;;;;;;;22.65;15.18;;;19.90;99.90;;;;;;6136446;22;87987;-70
2023/09/12 02:28:19;;;;;;;19.45;13.30;;;19.90;99.90;;;;;;6137100;22;88991;-68
2023/09/12 02:30:44;;;;;;;20.15;13.73;;;19.90;99.90;;;;;;6139367;22;87842;-70
2023/09/12 02:33:10;;;;;;;19.02;13.93;;;19.90;99.90;;;;;;6139533;22;87583;-68
2023/09/12 02:35:36;;;;;;;18.77;13.60;;;19.90;99.90;;;;;;6139057;22;88635;-70
2023/09/12 02:38:01;;;;;;;19.65;14.50;;;19.90;99.90;;;;;;6139023;22;87891;-69
2023/09/12 02:40:27;;;;;;;22.13;13.13;;;19.90;99.90;;;;;;6140470;22;88664;-69
2023/09/12 02:42:53;;;;;;;20.33;14.18;;;19.90;99.90;;;;;;6139563;22;87690;-68
2023/09/12 02:45:18;;;;;;;18.48;14.20;;;19.90;99.90;;;;;;6140506;22;88284;-68
2023/09/12 02:47:46;;;;;;;23.05;14.73;;;19.80;99.90;;;;;;6139662;22;87842;-69
2023/09/12 02:50:14;;;;;;;20.73;13.18;;;19.80;99.90;;;;;;6140298;22;87603;-70
2023/09/12 02:52:39;;;;;;;21.83;14.50;;;19.80;99.90;;;;;;6138783;22;88880;-69
2023/09/12 02:55:06;;;;;;;20.50;14.20;;;19.80;99.90;;;;;;6139318;22;88068;-68
2023/09/12 02:57:31;;;;;;;21.33;14.75;;;19.80;99.90;;;;;;6140265;22;88270;-70
2023/09/12 02:59:58;;;;;;;20.20;14.57;;;19.80;99.90;;;;;;6163404;22;87569;-69
2023/09/12 03:02:23;;;;;;;24.23;14.60;;;19.70;99.90;;;;;;6139555;22;88711;-68
2023/09/12 03:04:50;;;;;;;23.60;15.00;;;19.70;99.90;;;;;;6137631;22;88278;-69
2023/09/12 03:07:15;;;;;;;25.45;14.55;;;19.70;99.90;;;;;;6137883;22;88796;-69
2023/09/12 03:09:41;;;;;;;21.27;14.25;;;19.70;99.90;;;;;;6139075;22;86957;-69
2023/09/12 03:12:07;;;;;;;18.63;14.32;;;19.70;99.90;;;;;;6139413;22;87773;-69
2023/09/12 03:14:32;;;;;;;20.73;14.40;;;19.70;99.90;;;;;;6162960;22;90646;-68
2023/09/12 03:16:58;;;;;;;20.77;15.65;;;19.70;99.90;;;;;;6138269;22;88940;-69
2023/09/12 03:19:24;;;;;;;20.00;14.35;;;19.80;99.90;;;;;;6138887;22;87481;-68
2023/09/12 03:21:49;;;;;;;20.08;13.38;;;19.70;99.90;;;;;;6137463;22;87897;-68
2023/09/12 03:24:18;;;;;;;20.35;13.23;;;19.70;99.90;;;;;;6139463;22;88194;-68
2023/09/12 03:26:44;;;;;;;21.42;14.70;;;19.70;99.90;;;;;;6138896;22;88355;-69
2023/09/12 03:29:09;;;;;;;21.30;13.85;;;19.70;99.90;;;;;;6140215;22;87679;-70
2023/09/12 03:31:35;;;;;;;20.88;13.73;;;19.70;99.90;;;;;;6139495;22;87792;-69
2023/09/12 03:34:03;;;;;;;21.35;15.05;;;19.70;99.90;;;;;;6137834;22;88884;-68
2023/09/12 03:36:29;;;;;;;24.40;15.90;;;19.70;99.90;;;;;;6139682;22;88206;-71
2023/09/12 03:38:54;;;;;;;20.08;15.07;;;19.70;99.90;;;;;;6140307;22;87761;-69
2023/09/12 03:41:24;;;;;;;22.95;14.38;;;19.60;99.90;;;;;;6139088;22;88505;-70
2023/09/12 03:43:50;;;;;;;22.17;14.70;;;19.60;99.90;;;;;;6139095;22;88696;-70
2023/09/12 03:46:16;;;;;;;20.52;15.05;;;19.60;99.90;;;;;;6138875;22;88398;-69
2023/09/12 03:48:42;;;;;;;22.80;16.08;;;19.60;99.90;;;;;;6137238;22;87618;-70
2023/09/12 03:51:07;;;;;;;23.90;14.77;;;19.60;99.90;;;;;;6140639;22;87811;-70
2023/09/12 03:53:33;;;;;;;20.38;15.60;;;19.60;99.90;;;;;;6113541;22;91271;-69
2023/09/12 03:56:01;;;;;;;23.67;16.27;;;19.60;99.90;;;;;;6124936;22;87672;-68
2023/09/12 03:58:27;;;;;;;25.42;16.02;;;19.60;99.90;;;;;;6127570;22;86962;-69
2023/09/12 04:01:00;;;;;;;21.90;16.52;;;19.50;99.90;;;;;;6110106;22;89080;-68
2023/09/12 04:03:33;;;;;;;24.00;15.90;;;19.50;99.90;;;;;;6163789;22;91378;-70
2023/09/12 04:05:58;;;;;;;;;;;19.50;99.90;;;;;;6138491;22;88957;-68
2023/09/12 04:08:24;;;;;;;29.02;16.95;;;19.50;99.90;;;;;;6141347;22;87405;-68
2023/09/12 04:10:50;;;;;;;25.35;17.15;;;19.60;99.90;;;;;;6139092;22;87805;-67
2023/09/12 04:13:16;;;;;;;31.25;19.55;;;19.60;99.90;;;;;;6138736;22;87932;-71
2023/09/12 04:15:41;;;;;;;24.95;17.52;;;19.60;99.90;;;;;;6138271;22;88893;-68
2023/09/12 04:18:07;;;;;;;25.95;16.10;;;19.50;99.90;;;;;;6138464;22;87618;-70
2023/09/12 04:20:33;;;;;;;24.15;17.30;;;19.60;99.90;;;;;;6139285;22;87648;-68
2023/09/12 04:23:02;;;;;;;22.35;15.85;;;19.60;99.90;;;;;;6138006;22;94244;-70
2023/09/12 04:25:28;;;;;;;21.45;15.13;;;19.60;99.90;;;;;;6138822;22;88072;-69
2023/09/12 04:27:54;;;;;;;20.13;15.02;;;19.60;99.90;;;;;;6139634;22;88095;-68
2023/09/12 04:30:19;;;;;;;24.13;15.68;;;19.60;99.90;;;;;;6139836;22;88336;-67
2023/09/12 04:32:47;;;;;;;22.75;15.60;;;19.60;99.90;;;;;;6139585;22;88628;-70
2023/09/12 04:35:13;;;;;;;23.58;15.68;;;19.60;99.90;;;;;;6139010;22;88184;-70
2023/09/12 04:37:42;;;;;;;22.02;15.98;;;19.70;99.90;;;;;;6138621;22;87572;-70
2023/09/12 04:40:08;;;;;;;20.63;15.48;;;19.60;99.90;;;;;;6131124;22;89903;-68
2023/09/12 04:42:34;;;;;;;22.52;16.17;;;19.70;99.90;;;;;;6109450;22;87536;-68
2023/09/12 04:44:59;;;;;;;21.77;16.48;;;19.70;99.90;;;;;;6138700;22;88600;-68
2023/09/12 04:47:25;;;;;;;21.00;15.18;;;19.70;99.90;;;;;;6138712;22;87256;-69
2023/09/12 04:49:51;;;;;;;25.65;17.23;;;19.60;99.90;;;;;;6138746;22;87558;-71
2023/09/12 04:52:17;;;;;;;25.98;15.40;;;19.70;99.90;;;;;;6138511;22;87578;-68
2023/09/12 04:54:43;;;;;;;25.15;16.27;;;19.60;99.90;;;;;;6137118;22;88716;-70
2023/09/12 04:57:09;;;;;;;28.70;16.65;;;19.70;99.90;;;;;;6139821;22;87735;-69
2023/09/12 04:59:34;;;;;;;24.48;16.13;;;19.70;99.90;;;;;;6139391;22;87567;-71
2023/09/12 05:02:00;;;;;;;24.48;17.17;;;19.60;99.90;;;;;;6139468;22;88551;-70
2023/09/12 05:04:26;;;;;;;29.42;17.63;;;19.70;99.90;;;;;;6139073;22;88349;-68
2023/09/12 05:06:51;;;;;;;26.42;18.15;;;19.60;99.90;;;;;;6139581;22;87494;-69
2023/09/12 05:09:17;;;;;;;25.35;17.55;;;19.60;99.90;;;;;;6139448;22;87609;-71
2023/09/12 05:11:44;;;;;;;28.70;17.58;;;19.60;99.90;;;;;;6112096;22;89895;-70
2023/09/12 05:14:09;;;;;;;24.70;17.95;;;19.60;99.90;;;;;;6127144;22;87674;-69
2023/09/12 05:16:35;;;;;;;25.00;17.40;;;19.60;99.90;;;;;;6136636;22;87960;-71
2023/09/12 05:19:03;;;;;;;31.00;18.58;;;19.50;99.90;;;;;;6137596;22;88853;-69
2023/09/12 05:21:29;;;;;;;26.13;17.73;;;19.50;99.90;;;;;;6138305;22;87697;-71
2023/09/12 05:23:55;;;;;;;29.88;18.17;;;19.50;99.90;;;;;;6138705;22;88402;-70
2023/09/12 05:26:20;;;;;;;29.58;18.83;;;19.50;99.90;;;;;;6139871;22;87523;-68
2023/09/12 05:28:46;;;;;;;23.58;16.17;;;19.50;99.90;;;;;;6138568;22;87146;-71
2023/09/12 05:31:12;;;;;;;26.60;16.17;;;19.50;99.90;;;;;;6136755;22;89304;-67
2023/09/12 05:33:40;;;;;;;25.95;17.08;;;19.50;99.90;;;;;;6138817;22;88309;-68
2023/09/12 05:36:05;;;;;;;26.38;18.20;;;19.50;99.90;;;;;;6135732;22;91569;-68
2023/09/12 05:38:31;;;;;;;28.35;17.80;;;19.50;99.90;;;;;;6138026;22;87889;-69
2023/09/12 05:40:57;;;;;;;27.00;18.30;;;19.40;99.90;;;;;;6138331;22;88192;-68
2023/09/12 05:43:25;;;;;;;29.55;17.88;;;19.50;99.90;;;;;;6137248;22;89275;-68
2023/09/12 05:45:52;;;;;;;26.55;17.98;;;19.50;99.90;;;;;;6133948;22;87897;-67
2023/09/12 05:48:17;;;;;;;29.20;17.98;;;19.50;99.90;;;;;;6133356;22;87680;-70
2023/09/12 05:50:44;;;;;;;29.48;18.52;;;19.50;99.90;;;;;;6135194;22;88582;-69
2023/09/12 05:53:10;;;;;;;26.48;17.70;;;19.40;99.90;;;;;;6137263;22;87954;-68
2023/09/12 05:55:36;;;;;;;30.33;18.85;;;19.50;99.90;;;;;;6138073;22;87395;-68
2023/09/12 05:58:05;;;;;;;24.08;16.67;;;19.50;99.90;;;;;;6137389;22;88085;-68
2023/09/12 06:00:31;;;;;;;30.08;17.77;;;19.50;99.90;;;;;;6137932;22;86986;-68
2023/09/12 06:02:57;;;;;;;26.55;17.08;;;19.50;99.90;;;;;;6138180;22;87993;-68
2023/09/12 06:05:22;;;;;;;25.20;18.00;;;19.50;99.90;;;;;;6136658;22;87347;-70
2023/09/12 06:07:48;;;;;;;23.15;17.23;;;19.50;99.90;;;;;;6137152;22;88703;-68
2023/09/12 06:10:14;;;;;;;28.20;18.23;;;19.60;99.90;;;;;;6131114;22;88678;-67
2023/09/12 06:12:39;;;;;;;27.92;18.05;;;19.50;99.90;;;;;;6108626;22;89146;-71
2023/09/12 06:15:06;;;;;;;29.67;17.98;;;19.50;99.90;;;;;;6139692;22;87789;-67
2023/09/12 06:17:31;;;;;;;25.75;17.25;;;19.60;99.90;;;;;;6138986;22;89766;-70
2023/09/12 06:19:57;;;;;;;25.13;17.60;;;19.60;99.90;;;;;;6138915;22;88265;-69
2023/09/12 06:22:23;;;;;;;25.60;18.23;;;19.60;99.90;;;;;;6138649;22;88305;-68
2023/09/12 06:24:50;;;;;;;26.60;18.17;;;19.60;99.90;;;;;;6138835;22;86874;-69
2023/09/12 06:27:18;;;;;;;28.48;19.05;;;19.60;99.90;;;;;;6139467;22;87621;-69
2023/09/12 06:29:51;;;;;;;30.60;19.35;;;19.60;99.90;;;;;;6139843;22;87802;-68
2023/09/12 06:32:18;;;;;;;31.17;19.38;;;19.60;99.90;;;;;;6138319;22;88766;-70
2023/09/12 06:34:44;;;;;;;28.95;19.77;;;19.60;99.90;;;;;;6138438;22;88633;-68
2023/09/12 06:37:11;;;;;;;32.65;21.13;;;19.60;99.90;;;;;;6138423;22;87128;-70
2023/09/12 06:39:37;;;;;;;29.50;19.45;;;19.60;99.90;;;;;;6139038;22;87984;-68
2023/09/12 06:42:03;;;;;;;31.17;20.05;;;19.60;99.90;;;;;;6139179;22;88527;-69
2023/09/12 06:44:29;;;;;;;28.10;19.05;;;19.60;99.90;;;;;;6138866;22;87760;-69
2023/09/12 06:46:54;;;;;;;30.98;19.27;;;19.70;99.90;;;;;;6137674;22;87899;-68
2023/09/12 06:49:20;;;;;;;32.17;19.92;;;19.70;99.90;;;;;;6139057;22;88176;-69
2023/09/12 06:51:46;;;;;;;28.98;20.13;;;19.70;99.90;;;;;;6138463;22;87650;-67
2023/09/12 06:54:14;;;;;;;31.17;21.17;;;19.80;99.90;;;;;;6137462;22;87610;-70
2023/09/12 06:56:42;;;;;;;32.13;20.42;;;19.80;99.90;;;;;;6136048;22;89045;-70
2023/09/12 06:59:08;;;;;;;34.90;21.60;;;19.90;99.90;;;;;;6136897;22;87857;-69
2023/09/12 07:01:34;;;;;;;38.85;24.02;;;19.90;99.90;;;;;;6138128;22;92488;-68
2023/09/12 07:03:59;;;;;;;38.72;22.33;;;20.00;99.90;;;;;;6138082;22;87492;-67
2023/09/12 07:06:25;;;;;;;32.58;22.83;;;20.00;99.90;;;;;;6137593;22;87862;-67
2023/09/12 07:08:53;;;;;;;43.55;23.48;;;20.00;99.90;;;;;;6161917;22;90910;-69
2023/09/12 07:11:19;;;;;;;33.90;22.85;;;20.00;99.90;;;;;;6116473;22;91234;-69
2023/09/12 07:13:45;;;;;;;42.92;24.13;;;20.10;99.90;;;;;;6123239;22;87085;-68
2023/09/12 07:16:11;;;;;;;36.35;23.20;;;20.10;99.90;;;;;;6138802;22;88443;-68
2023/09/12 07:18:37;;;;;;;38.47;23.20;;;20.20;99.90;;;;;;6140001;22;91916;-70
2023/09/12 07:21:04;;;;;;;34.28;22.10;;;20.20;99.90;;;;;;6140487;22;87943;-68
2023/09/12 07:23:30;;;;;;;34.60;23.42;;;20.30;99.90;;;;;;6116934;22;87464;-68
2023/09/12 07:25:57;;;;;;;38.42;23.88;;;20.40;99.90;;;;;;6122154;22;90285;-70
2023/09/12 07:28:26;;;;;;;33.30;22.63;;;20.40;99.90;;;;;;6120060;22;90137;-67
2023/09/12 07:30:58;;;;;;;36.45;21.92;;;20.50;99.90;;;;;;6111499;22;89008;-69
2023/09/12 07:33:24;;;;;;;39.85;23.52;;;20.60;99.90;;;;;;6139293;22;87797;-69
2023/09/12 07:35:52;;;;;;;35.72;23.23;;;20.60;99.90;;;;;;6139823;22;87972;-69
2023/09/12 07:38:19;;;;;;;32.58;22.40;;;20.70;99.90;;;;;;6138513;22;89006;-66
2023/09/12 07:40:45;;;;;;;31.55;20.90;;;20.70;99.90;;;;;;6162946;22;91709;-69
2023/09/12 07:43:11;;;;;;;32.95;23.13;;;20.80;99.90;;;;;;6139886;22;87741;-68
2023/09/12 07:45:37;;;;;;;33.60;22.08;;;20.90;99.90;;;;;;6139969;22;89280;-69
2023/09/12 07:48:07;;;;;;;34.80;22.90;;;20.90;99.90;;;;;;6163192;22;91342;-69
2023/09/12 07:50:33;;;;;;;33.90;22.25;;;21.00;99.90;;;;;;6138071;22;91942;-68
2023/09/12 07:52:59;;;;;;;35.90;22.52;;;21.10;99.90;;;;;;6136752;22;88077;-69
2023/09/12 07:55:25;;;;;;;38.55;24.17;;;21.20;99.90;;;;;;6140081;22;87365;-70
2023/09/12 07:57:51;;;;;;;32.70;21.40;;;21.20;99.90;;;;;;6162800;22;90064;-66
2023/09/12 08:00:17;;;;;;;38.17;22.75;;;21.30;99.80;;;;;;6140012;22;88253;-67
2023/09/12 08:02:43;;;;;;;32.72;23.13;;;21.40;99.40;;;;;;6113365;22;86771;-68
2023/09/12 08:05:08;;;;;;;32.78;21.20;;;21.40;99.10;;;;;;6128133;22;87892;-69
2023/09/12 08:07:35;;;;;;;34.63;22.10;;;21.50;99.10;;;;;;6139035;22;88254;-72
2023/09/12 08:10:03;;;;;;;32.95;21.38;;;21.60;99.00;;;;;;6138033;22;88918;-69
2023/09/12 08:12:29;;;;;;;28.05;21.08;;;21.70;99.00;;;;;;6139097;22;87864;-71
2023/09/12 08:14:55;;;;;;;33.88;23.27;;;21.80;99.10;;;;;;6139618;22;87986;-70
2023/09/12 08:17:23;;;;;;;38.20;22.60;;;22.00;98.40;;;;;;6137714;22;91320;-71
2023/09/12 08:19:48;;;;;;;37.25;21.88;;;22.20;98.00;;;;;;6139902;22;87612;-69
2023/09/12 08:22:14;;;;;;;34.05;21.80;;;22.30;97.60;;;;;;6139911;22;87802;-72
2023/09/12 08:24:40;;;;;;;36.03;21.67;;;22.50;97.50;;;;;;6139858;22;88662;-68
2023/09/12 08:27:06;;;;;;;29.60;19.80;;;22.60;96.80;;;;;;6141204;22;87466;-68
2023/09/12 08:29:35;;;;;;;32.33;21.20;;;22.60;95.90;;;;;;6141050;22;87611;-67
2023/09/12 08:32:02;;;;;;;28.23;20.65;;;22.80;95.50;;;;;;6140013;22;88468;-71
2023/09/12 08:34:27;;;;;;;32.83;20.75;;;22.80;96.00;;;;;;6140686;22;89070;-69
2023/09/12 08:36:54;;;;;;;25.33;18.35;;;22.90;96.50;;;;;;6140179;22;87671;-68
2023/09/12 08:39:43;;;;;;;29.05;19.40;;;23.10;95.60;;;;;;6139784;22;87862;-70
2023/09/12 08:42:13;;;;;;;29.15;17.17;;;23.20;95.30;;;;;;6140435;22;87850;-70
2023/09/12 08:44:41;;;;;;;28.50;18.15;;;23.40;95.60;;;;;;6140031;22;89244;-69
2023/09/12 08:47:09;;;;;;;26.95;16.70;;;23.60;94.80;;;;;;6140130;22;87650;-67
2023/09/12 08:49:36;;;;;;;24.15;15.43;;;23.80;94.80;;;;;;6140607;22;88332;-69
2023/09/12 08:52:02;;;;;;;30.77;18.30;;;24.00;94.50;;;;;;6140291;22;87800;-68
2023/09/12 08:54:28;;;;;;;27.58;17.70;;;24.10;94.20;;;;;;6141070;22;87212;-69
2023/09/12 08:56:54;;;;;;;31.05;20.27;;;24.20;94.00;;;;;;6139761;22;88298;-69
2023/09/12 08:59:20;;;;;;;26.17;16.98;;;24.30;92.40;;;;;;6140151;22;88954;-69
2023/09/12 09:01:46;;;;;;;33.13;19.00;;;24.50;93.80;;;;;;6140567;22;87634;-69
2023/09/12 09:04:12;;;;;;;30.67;18.85;;;24.60;92.80;;;;;;6140005;22;88076;-70
2023/09/12 09:06:41;;;;;;;27.15;18.08;;;24.70;92.40;;;;;;6164403;22;91313;-70
2023/09/12 09:09:08;;;;;;;23.50;16.92;;;24.80;91.80;;;;;;6113526;23;92845;-68
2023/09/12 09:11:34;;;;;;;29.70;18.27;;;24.90;91.80;;;;;;6135634;22;87155;-69
2023/09/12 09:14:03;;;;;;;31.77;17.98;;;25.00;91.80;;;;;;6143159;22;87863;-69
2023/09/12 09:16:29;;;;;;;26.75;15.88;;;25.10;92.60;;;;;;6142598;22;88091;-71
2023/09/12 09:18:55;;;;;;;20.92;14.90;;;25.30;93.20;;;;;;6142203;22;87881;-72
2023/09/12 09:21:26;;;;;;;23.85;16.38;;;25.50;92.50;;;;;;6166990;22;87576;-71
2023/09/12 09:23:54;;;;;;;24.33;16.55;;;25.70;92.10;;;;;;6140919;22;88547;-69
2023/09/12 09:26:20;;;;;;;23.10;15.38;;;25.80;90.50;;;;;;6142196;22;88011;-71
2023/09/12 09:29:03;;;;;;;22.65;14.57;;;25.90;90.90;;;;;;6142297;22;87782;-71
2023/09/12 09:31:40;;;;;;;20.88;13.15;;;26.10;90.60;;;;;;6142097;22;87398;-69
2023/09/12 09:34:12;;;;;;;17.80;13.73;;;26.20;86.50;;;;;;6142478;22;87830;-68
2023/09/12 09:36:42;;;;;;;23.95;15.18;;;26.30;88.10;;;;;;6139707;22;88094;-71
2023/09/12 09:39:08;;;;;;;19.73;13.30;;;26.40;86.30;;;;;;6109774;23;93183;-69
2023/09/12 09:41:34;;;;;;;26.33;14.75;;;26.40;86.70;;;;;;6134029;22;86679;-69
2023/09/12 09:44:00;;;;;;;17.20;12.25;;;26.40;85.50;;;;;;6140010;22;87605;-68
2023/09/12 09:46:26;;;;;;;19.25;12.75;;;26.40;86.70;;;;;;6138844;22;88978;-70
2023/09/12 09:48:52;;;;;;;18.67;11.75;;;26.40;87.50;;;;;;6137881;22;89141;-67
2023/09/12 09:51:18;;;;;;;23.30;13.60;;;26.60;88.90;;;;;;6138881;22;87558;-67
2023/09/12 09:53:44;;;;;;;18.25;14.20;;;26.80;87.30;;;;;;6138605;22;87609;-69
2023/09/12 09:56:12;;;;;;;19.02;12.40;;;26.90;83.60;;;;;;6139195;22;88735;-69
2023/09/12 09:58:52;;;;;;;17.20;13.05;;;27.00;84.30;;;;;;6155614;22;89775;-69
2023/09/12 10:01:23;;;;;;;17.23;11.90;;;26.90;82.80;;;;;;6108332;23;87424;-68
2023/09/12 10:03:50;;;;;;;17.98;12.18;;;26.90;83.90;;;;;;6108836;22;90509;-66
2023/09/12 10:06:18;;;;;;;14.48;10.05;;;27.00;84.50;;;;;;6137984;22;88471;-67
2023/09/12 10:08:46;;;;;;;13.23;9.40;;;27.10;85.60;;;;;;6137665;22;87796;-67
2023/09/12 10:11:15;;;;;;;9.35;6.30;;;27.20;84.80;;;;;;6138898;22;87272;-69
2023/09/12 10:13:49;;;;;;;13.88;6.93;;;27.40;82.70;;;;;;6138835;22;88619;-69
2023/09/12 10:16:16;;;;;;;7.85;5.32;;;27.50;80.30;;;;;;6137836;22;89033;-70
2023/09/12 10:18:55;;;;;;;10.73;5.82;;;27.70;84.80;;;;;;6138598;22;88310;-65
2023/09/12 10:21:30;;;;;;;9.10;5.10;;;27.90;80.80;;;;;;6139526;22;87814;-67
2023/09/12 10:23:57;;;;;;;8.93;4.78;;;28.20;82.10;;;;;;6139670;22;87756;-67
2023/09/12 10:26:24;;;;;;;6.97;5.00;;;28.40;82.00;;;;;;6139796;22;87398;-68
2023/09/12 10:28:51;;;;;;;11.73;4.95;;;28.70;82.30;;;;;;6139482;22;87751;-67
2023/09/12 10:31:17;;;;;;;8.32;5.90;;;29.00;80.70;;;;;;6140024;22;87520;-65
2023/09/12 10:33:44;;;;;;;8.30;4.93;;;29.20;80.20;;;;;;6139357;22;87981;-66
2023/09/12 10:36:12;;;;;;;7.38;5.68;;;29.40;78.10;;;;;;6138628;22;88011;-66
2023/09/12 10:38:45;;;;;;;11.18;4.57;;;29.60;76.60;;;;;;6112744;22;91209;-68
2023/09/12 10:41:15;;;;;;;9.43;7.53;;;29.80;79.00;;;;;;6128093;22;87602;-68
2023/09/12 10:43:42;;;;;;;11.30;7.28;;;29.90;69.80;;;;;;6137628;22;90590;-68
2023/09/12 10:46:09;;;;;;;13.32;7.15;;;29.80;71.50;;;;;;6138478;22;89652;-67
2023/09/12 10:48:36;;;;;;;12.85;8.20;;;29.60;70.70;;;;;;6161759;22;91108;-66
2023/09/12 10:51:04;;;;;;;9.32;6.43;;;29.30;70.30;;;;;;6136781;22;87381;-65
2023/09/12 10:53:31;;;;;;;11.73;7.13;;;29.00;71.30;;;;;;6138420;22;87463;-67
2023/09/12 10:56:17;;;;;;;19.38;8.88;;;28.90;70.60;;;;;;6139112;22;87233;-66
2023/09/12 10:59:04;;;;;;;10.23;6.35;;;29.00;76.30;;;;;;6139155;22;88900;-65
2023/09/12 11:01:31;;;;;;;10.55;7.18;;;29.10;72.20;;;;;;6164557;22;88124;-67
2023/09/12 11:03:57;;;;;;;11.73;7.10;;;29.20;71.30;;;;;;6163374;22;89792;-66
2023/09/12 11:06:31;;;;;;;8.75;6.07;;;29.40;71.00;;;;;;6140334;22;87460;-69
2023/09/12 11:09:23;;;;;;;10.50;7.47;;;29.50;71.50;;;;;;6138906;22;89097;-67
2023/09/12 11:12:04;;;;;;;11.30;7.70;;;29.70;70.80;;;;;;6138845;22;88132;-66
2023/09/12 11:14:30;;;;;;;10.95;7.18;;;29.70;71.80;;;;;;6141566;22;87781;-67
2023/09/12 11:17:08;;;;;;;9.73;6.78;;;29.60;71.20;;;;;;6140170;22;88017;-68
2023/09/12 11:19:43;;;;;;;9.05;5.82;;;29.70;72.60;;;;;;6163170;22;91063;-67
2023/09/12 11:22:21;;;;;;;11.02;6.45;;;30.00;74.20;;;;;;6140760;22;87118;-66
2023/09/12 11:24:47;;;;;;;7.20;5.45;;;30.30;68.50;;;;;;6138516;22;88538;-67
2023/09/12 11:27:13;;;;;;;16.08;6.18;;;30.30;70.10;;;;;;6139822;22;87767;-69
2023/09/12 11:29:40;;;;;;;10.90;5.40;;;30.30;70.10;;;;;;6139565;22;88892;-69
2023/09/12 11:32:07;;;;;;;7.55;5.32;;;30.30;66.40;;;;;;6139153;22;87630;-70
2023/09/12 11:34:42;;;;;;;6.63;4.88;;;30.10;64.90;;;;;;6138125;22;87671;-68
2023/09/12 11:37:09;;;;;;;11.20;4.82;;;30.00;65.20;;;;;;6138624;22;87920;-69
2023/09/12 11:39:36;;;;;;;6.55;4.88;;;29.80;66.00;;;;;;6163937;22;91230;-68
2023/09/12 11:42:04;;;;;;;5.95;4.47;;;29.70;66.00;;;;;;6140811;22;87806;-68
2023/09/12 11:44:31;;;;;;;6.80;4.43;;;29.60;68.10;;;;;;6138570;22;90681;-68
2023/09/12 11:47:05;;;;;;;8.95;5.00;;;29.60;67.60;;;;;;6162650;22;90998;-67
2023/09/12 11:49:38;;;;;;;11.25;6.10;;;29.60;68.30;;;;;;6138201;22;90564;-67
2023/09/12 11:52:07;;;;;;;;;;;29.70;67.60;;;;;;6140052;22;87677;-70
2023/09/12 11:54:33;;;;;;;5.55;4.13;;;29.70;67.70;;;;;;6141394;22;88873;-70
2023/09/12 11:56:59;;;;;;;5.35;3.90;;;29.90;70.70;;;;;;6139902;22;87833;-68
2023/09/12 11:59:27;;;;;;;6.50;4.15;;;30.30;68.00;;;;;;6139002;22;88671;-70
2023/09/12 12:01:54;;;;;;;7.43;4.95;;;30.50;66.00;;;;;;6138498;22;87632;-70
2023/09/12 12:04:27;;;;;;;6.70;3.88;;;30.70;65.10;;;;;;6137804;22;87898;-69
2023/09/12 12:06:53;;;;;;;;;;;30.80;67.10;;;;;;6140318;22;87626;-69
2023/09/12 12:09:19;;;;;;;8.45;3.72;;;31.00;64.20;;;;;;6142305;22;88479;-68
2023/09/12 12:11:48;;;;;;;8.65;4.47;;;31.10;64.70;;;;;;6141051;22;86890;-71
2023/09/12 12:14:15;;;;;;;6.22;4.30;;;31.50;63.50;;;;;;6163857;22;89679;-71
2023/09/12 12:16:46;;;;;;;5.25;3.85;;;31.60;63.40;;;;;;6138304;22;91301;-71
2023/09/12 12:19:13;;;;;;;4.50;3.10;;;31.60;60.60;;;;;;6139319;22;88705;-69
2023/09/12 12:21:42;;;;;;;5.97;3.78;;;31.60;60.20;;;;;;6141798;22;87867;-70
2023/09/12 12:24:12;;;;;;;8.82;3.75;;;31.60;60.70;;;;;;6137970;22;94592;-71
2023/09/12 12:26:40;;;;;;;4.13;2.75;;;31.60;60.00;;;;;;6139555;22;88611;-70
2023/09/12 12:29:05;;;;;;;6.22;3.00;;;31.80;64.30;;;;;;6139164;22;87499;-70
2023/09/12 12:31:31;;;;;;;6.00;3.83;;;32.10;59.20;;;;;;6139928;22;87701;-70